Time;durP1;ratioP1;P1;durP2;ratioP2;P2;SDS_P1;SDS_P2;PMS_P1;PMS_P2;Temp;Humidity;BMP_temperature;BMP_pressure;BME280_temperature;BME280_humidity;BME280_pressure;Samples;Min_cycle;Max_cycle;Signal;HPM_P1;HPM_P2
2023/08/15 00:01:04;;;;;;;23.80;9.07;;;;;;;20.07;54.48;101130.62;124727;1102;103395;-77
2023/08/15 00:03:35;;;;;;;20.27;8.53;;;;;;;20.05;55.08;101127.07;124795;1102;104323;-78
2023/08/15 00:06:07;;;;;;;19.63;8.40;;;;;;;20.03;54.60;101129.72;124802;1101;102004;-79
2023/08/15 00:08:38;;;;;;;18.13;8.20;;;;;;;20.03;54.38;101137.72;124796;1102;104105;-79
2023/08/15 00:11:09;;;;;;;20.20;8.23;;;;;;;19.98;54.51;101128.81;124838;1102;104242;-78
2023/08/15 00:13:41;;;;;;;16.93;8.50;;;;;;;19.91;54.76;101127.89;124888;1100;104201;-77
2023/08/15 00:16:12;;;;;;;20.10;8.77;;;;;;;19.84;54.54;101130.48;124887;1102;101903;-78
2023/08/15 00:18:44;;;;;;;21.83;8.53;;;;;;;19.79;55.10;101138.45;124809;1100;102025;-78
2023/08/15 00:21:16;;;;;;;22.80;8.20;;;;;;;19.77;54.96;101133.97;124694;1102;102074;-79
2023/08/15 00:23:47;;;;;;;21.05;8.40;;;;;;;19.72;55.49;101131.23;124846;1102;102431;-78
2023/08/15 00:26:18;;;;;;;19.63;7.93;;;;;;;19.68;55.17;101135.66;124887;1102;104255;-78
2023/08/15 00:28:50;;;;;;;22.07;8.47;;;;;;;19.70;55.01;101133.01;124814;1101;104252;-78
2023/08/15 00:31:21;;;;;;;18.33;8.23;;;;;;;19.69;55.83;101139.20;124889;1102;104173;-78
2023/08/15 00:33:52;;;;;;;21.67;8.73;;;;;;;19.65;54.92;101137.38;124872;1102;104162;-78
2023/08/15 00:36:24;;;;;;;23.10;9.00;;;;;;;19.61;55.58;101132.93;124884;1102;102051;-78
2023/08/15 00:39:01;;;;;;;17.33;8.20;;;;;;;19.55;56.10;101139.08;124784;1102;102338;-79
2023/08/15 00:41:33;;;;;;;18.37;8.47;;;;;;;19.49;56.16;101134.58;124782;1102;101798;-79
2023/08/15 00:44:04;;;;;;;18.30;8.30;;;;;;;19.47;56.18;101133.69;124772;1102;101983;-78
2023/08/15 00:46:38;;;;;;;18.73;8.43;;;;;;;19.50;56.19;101127.51;124788;1102;102015;-79
2023/08/15 00:49:09;;;;;;;17.70;8.00;;;;;;;19.51;55.83;101131.94;124823;1101;101909;-78
2023/08/15 00:51:41;;;;;;;17.97;7.73;;;;;;;19.49;56.11;101131.04;124793;1102;104181;-78
2023/08/15 00:54:13;;;;;;;21.03;8.00;;;;;;;19.44;56.34;101132.78;124857;1102;102090;-79
2023/08/15 00:56:44;;;;;;;15.60;7.33;;;;;;;19.37;56.75;101126.52;124818;1100;117831;-78
2023/08/15 00:59:16;;;;;;;18.20;8.50;;;;;;;19.32;56.85;101125.55;124804;1102;101860;-78
2023/08/15 01:01:47;;;;;;;15.10;7.90;;;;;;;19.28;56.91;101119.32;124837;1102;104185;-78
2023/08/15 01:04:19;;;;;;;18.30;7.87;;;;;;;19.26;57.01;101113.10;124740;1102;102256;-79
2023/08/15 01:06:51;;;;;;;18.90;8.27;;;;;;;19.29;57.26;101113.13;124882;1102;101817;-78
2023/08/15 01:09:22;;;;;;;17.30;8.83;;;;;;;19.27;57.24;101113.98;124766;1102;104307;-79
2023/08/15 01:12:04;;;;;;;21.47;8.70;;;;;;;19.24;58.05;101120.16;124770;1102;102051;-79
2023/08/15 01:14:42;;;;;;;18.43;9.00;;;;;;;19.16;57.75;101111.22;124877;1102;104169;-78
2023/08/15 01:17:18;;;;;;;20.13;8.53;;;;;;;19.13;58.11;101114.72;124748;1101;110509;-78
2023/08/15 01:19:53;;;;;;;19.57;8.37;;;;;;;19.08;58.04;101118.23;124816;1101;101827;-78
2023/08/15 01:22:28;;;;;;;20.80;8.93;;;;;;;18.98;58.84;101115.47;124804;1102;104169;-78
2023/08/15 01:25:00;;;;;;;22.27;8.23;;;;;;;18.89;58.03;101112.71;124851;1102;104365;-79
2023/08/15 01:27:32;;;;;;;18.90;8.20;;;;;;;18.84;58.78;101110.00;124834;1101;101811;-80
2023/08/15 01:30:03;;;;;;;22.57;8.30;;;;;;;18.80;59.99;101109.91;124739;1102;104178;-79
2023/08/15 01:32:43;;;;;;;18.40;8.47;;;;;;;18.73;59.13;101111.61;124874;1102;104272;-78
2023/08/15 01:35:20;;;;;;;19.90;8.10;;;;;;;18.66;59.80;101115.94;124808;1102;102026;-79
2023/08/15 01:37:59;;;;;;;16.87;7.83;;;;;;;18.62;59.84;101108.83;124746;1102;107479;-78
2023/08/15 01:40:34;;;;;;;18.30;8.37;;;;;;;18.56;59.90;101106.09;124864;1102;104242;-78
2023/08/15 01:43:11;;;;;;;18.83;8.37;;;;;;;18.55;60.16;101104.30;124694;1102;102073;-78
2023/08/15 01:45:42;;;;;;;15.73;8.10;;;;;;;18.53;60.30;101107.80;124851;1102;101942;-79
2023/08/15 01:48:13;;;;;;;20.17;8.50;;;;;;;18.54;60.44;101105.16;124872;1102;102036;-78
2023/08/15 01:50:46;;;;;;;19.47;8.00;;;;;;;18.50;60.59;101101.58;124731;1102;102038;-78
2023/08/15 01:53:17;;;;;;;21.63;8.57;;;;;;;18.48;60.73;101107.73;124781;1102;101923;-78
2023/08/15 01:55:48;;;;;;;24.77;9.63;;;;;;;18.46;60.70;101114.80;124835;1102;104255;-77
2023/08/15 01:58:24;;;;;;;18.30;8.63;;;;;;;18.40;61.05;101109.41;124867;1102;102076;-78
2023/08/15 02:00:55;;;;;;;21.27;9.20;;;;;;;18.37;61.72;101107.63;124808;1102;104177;-79
2023/08/15 02:03:26;;;;;;;20.23;8.93;;;;;;;18.35;61.67;101111.12;124811;1101;104271;-77
2023/08/15 02:05:58;;;;;;;20.33;8.50;;;;;;;18.30;61.93;101105.75;124728;1102;104258;-78
2023/08/15 02:08:29;;;;;;;19.90;8.87;;;;;;;18.26;62.06;101107.47;124720;1102;104204;-78
2023/08/15 02:11:00;;;;;;;18.43;8.77;;;;;;;18.25;62.04;101107.45;124766;1102;104221;-79
2023/08/15 02:13:33;;;;;;;17.77;8.63;;;;;;;18.23;61.73;101109.17;124854;1101;101926;-77
2023/08/15 02:16:05;;;;;;;20.20;9.03;;;;;;;18.21;61.89;101105.62;124766;1102;104179;-78
2023/08/15 02:18:37;;;;;;;20.27;7.67;;;;;;;18.21;62.20;101106.50;124807;1102;104198;-79
2023/08/15 02:21:08;;;;;;;15.53;7.93;;;;;;;18.17;61.52;101102.03;124776;1102;102138;-78
2023/08/15 02:23:39;;;;;;;17.53;8.30;;;;;;;18.15;62.03;101106.41;124841;1102;104273;-77
2023/08/15 02:26:11;;;;;;;16.63;7.90;;;;;;;18.11;62.11;101108.14;124697;1102;104227;-77
2023/08/15 02:28:42;;;;;;;15.47;8.17;;;;;;;18.09;61.56;101116.94;124646;1102;104098;-78
2023/08/15 02:31:13;;;;;;;16.13;7.80;;;;;;;18.04;61.51;101113.34;124683;1101;101994;-78
2023/08/15 02:33:45;;;;;;;15.73;7.57;;;;;;;18.02;61.98;101120.39;124712;1102;102410;-76
2023/08/15 02:36:16;;;;;;;19.87;7.73;;;;;;;18.01;61.75;101119.48;124680;1101;102083;-77
2023/08/15 02:38:48;;;;;;;18.37;7.50;;;;;;;18.02;61.81;101121.28;124747;1102;104348;-76
2023/08/15 02:41:20;;;;;;;15.27;7.50;;;;;;;18.03;61.97;101123.08;124671;1102;102169;-77
2023/08/15 02:43:51;;;;;;;14.97;7.50;;;;;;;18.02;62.57;101125.70;124721;1102;102151;-77
2023/08/15 02:46:25;;;;;;;15.47;7.60;;;;;;;17.98;62.70;101131.83;124711;1102;104192;-77
2023/08/15 02:48:56;;;;;;;16.97;7.83;;;;;;;17.94;62.53;101128.25;124711;1101;104633;-77
2023/08/15 02:51:27;;;;;;;17.53;7.63;;;;;;;17.90;62.53;101132.63;124755;1101;102022;-78
2023/08/15 02:53:59;;;;;;;15.83;7.50;;;;;;;17.89;62.40;101125.52;124821;1102;104198;-77
2023/08/15 02:56:30;;;;;;;19.40;7.77;;;;;;;17.88;62.71;101126.38;124798;1102;104101;-78
2023/08/15 02:59:01;;;;;;;19.43;8.30;;;;;;;17.84;63.32;101132.49;124703;1102;102356;-78
2023/08/15 03:01:33;;;;;;;16.67;8.27;;;;;;;17.79;63.29;101126.19;124694;1101;104731;-78
2023/08/15 03:04:06;;;;;;;19.63;8.37;;;;;;;17.77;63.34;101127.94;124728;1102;102083;-78
2023/08/15 03:06:38;;;;;;;17.40;8.20;;;;;;;17.75;63.08;101132.34;124661;1102;104316;-78
2023/08/15 03:09:09;;;;;;;18.23;8.00;;;;;;;17.72;63.38;101127.87;124657;1102;104152;-77
2023/08/15 03:11:41;;;;;;;16.50;8.70;;;;;;;17.68;63.48;101125.13;124630;1102;104173;-77
2023/08/15 03:14:12;;;;;;;19.00;8.27;;;;;;;17.65;63.74;101130.39;124846;1102;103160;-78
2023/08/15 03:16:44;;;;;;;17.73;8.47;;;;;;;17.61;63.81;101130.34;124857;1102;101966;-78
2023/08/15 03:19:15;;;;;;;17.17;8.43;;;;;;;17.63;63.91;101138.33;124784;1102;103677;-78
2023/08/15 03:21:46;;;;;;;14.87;8.00;;;;;;;17.66;63.82;101132.19;124776;1101;104353;-78
2023/08/15 03:24:18;;;;;;;17.03;8.83;;;;;;;17.67;63.94;101129.56;124671;1102;104175;-78
2023/08/15 03:26:49;;;;;;;18.30;8.33;;;;;;;17.63;64.25;101132.14;124760;1102;104185;-78
2023/08/15 03:29:21;;;;;;;16.30;8.07;;;;;;;17.58;63.90;101140.90;124620;1102;104035;-77
2023/08/15 03:31:57;;;;;;;23.47;8.63;;;;;;;17.56;64.59;101139.99;124426;1102;101926;-76
2023/08/15 03:34:29;;;;;;;16.13;7.93;;;;;;;17.55;64.62;101142.62;124517;1102;104249;-76
2023/08/15 03:37:01;;;;;;;15.03;8.00;;;;;;;17.52;64.97;101143.45;124717;1102;104229;-77
2023/08/15 03:39:32;;;;;;;19.33;9.03;;;;;;;17.51;65.18;101138.11;124743;1102;104250;-77
2023/08/15 03:42:04;;;;;;;22.93;8.90;;;;;;;17.53;65.14;101141.67;124732;1102;104220;-78
2023/08/15 03:44:35;;;;;;;14.03;7.73;;;;;;;17.57;65.15;101140.88;124667;1100;104210;-76
2023/08/15 03:47:08;;;;;;;17.23;8.23;;;;;;;17.65;64.97;101147.20;124759;1102;104188;-81
2023/08/15 03:49:39;;;;;;;20.00;9.57;;;;;;;17.67;65.74;101153.45;125612;1101;104246;-79
2023/08/15 03:52:11;;;;;;;21.10;8.80;;;;;;;17.68;65.71;101146.37;125903;1102;101782;-79
2023/08/15 03:54:42;;;;;;;17.53;8.83;;;;;;;17.72;66.07;101148.22;125061;1102;104172;-82
2023/08/15 03:57:13;;;;;;;16.87;8.87;;;;;;;17.74;65.59;101142.05;125080;1102;104242;-79
2023/08/15 03:59:45;;;;;;;18.27;8.63;;;;;;;17.80;65.59;101143.91;125139;1102;101883;-81
2023/08/15 04:02:16;;;;;;;19.47;9.17;;;;;;;17.86;65.31;101140.48;124982;1102;104172;-80
2023/08/15 04:04:48;;;;;;;19.70;8.53;;;;;;;17.91;65.59;101152.09;124979;1102;102144;-79
2023/08/15 04:07:20;;;;;;;21.90;9.37;;;;;;;17.95;65.45;101146.86;124990;1102;104236;-80
2023/08/15 04:09:51;;;;;;;19.33;8.60;;;;;;;18.03;66.02;101154.94;125054;1102;104221;-81
2023/08/15 04:12:24;;;;;;;21.80;9.43;;;;;;;18.08;65.55;101152.36;124971;1102;104244;-80
2023/08/15 04:14:55;;;;;;;19.17;8.70;;;;;;;18.09;65.71;101148.81;124947;1102;104245;-82
2023/08/15 04:17:28;;;;;;;18.27;8.47;;;;;;;18.12;65.56;101147.12;124887;1102;104230;-81
2023/08/15 04:19:59;;;;;;;19.23;8.77;;;;;;;18.17;65.45;101148.92;125009;1102;102597;-81
2023/08/15 04:22:31;;;;;;;20.87;8.97;;;;;;;18.23;65.38;101157.90;125117;1100;104351;-82
2023/08/15 04:25:02;;;;;;;17.33;8.50;;;;;;;18.33;65.20;101153.61;125004;1101;101995;-81
2023/08/15 04:27:34;;;;;;;22.43;8.53;;;;;;;18.41;65.24;101153.72;125072;1102;102312;-81
2023/08/15 04:30:08;;;;;;;17.77;7.47;;;;;;;18.43;64.87;101144.91;124940;1102;104300;-80
2023/08/15 04:32:38;;;;;;;;;;;;;;;18.47;64.74;101141.39;125183;1102;102823;-80
2023/08/15 04:35:10;;;;;;;18.70;8.20;;;;;;;18.52;64.82;101153.86;125423;1102;102123;-81
2023/08/15 04:37:43;;;;;;;17.87;7.83;;;;;;;18.55;64.64;101146.81;125603;1102;104252;-81
2023/08/15 04:40:15;;;;;;;16.30;8.17;;;;;;;18.61;64.49;101153.98;125948;1102;101782;-81
2023/08/15 04:42:46;;;;;;;17.87;8.20;;;;;;;18.62;64.50;101148.69;125269;1102;101967;-78
2023/08/15 04:45:18;;;;;;;22.57;8.27;;;;;;;18.64;64.45;101149.59;124774;1102;102190;-78
2023/08/15 04:47:49;;;;;;;14.67;7.20;;;;;;;18.68;64.07;101151.43;124644;1102;101951;-79
2023/08/15 04:50:21;;;;;;;18.63;7.60;;;;;;;18.75;63.81;101156.83;124636;1101;102064;-78
2023/08/15 04:52:52;;;;;;;16.63;8.03;;;;;;;18.80;64.13;101149.79;124655;1101;101836;-78
2023/08/15 04:55:27;;;;;;;15.63;7.40;;;;;;;18.84;63.91;101154.28;124931;1102;104165;-80
2023/08/15 04:57:59;;;;;;;16.40;7.23;;;;;;;18.90;63.70;101164.11;124988;1102;102606;-75
2023/08/15 05:00:30;;;;;;;16.03;6.97;;;;;;;18.97;63.51;101164.20;125103;1102;103082;-80
2023/08/15 05:03:05;;;;;;;17.30;7.37;;;;;;;19.10;63.58;101156.37;125202;1102;104162;-79
2023/08/15 05:05:37;;;;;;;17.47;7.83;;;;;;;19.22;63.93;101159.16;125097;1102;102189;-75
2023/08/15 05:08:09;;;;;;;18.20;7.57;;;;;;;19.30;63.08;101151.27;124740;1102;104373;-78
2023/08/15 05:10:40;;;;;;;17.90;7.30;;;;;;;19.37;63.44;101154.00;124704;1102;104198;-83
2023/08/15 05:13:12;;;;;;;16.23;7.73;;;;;;;19.44;63.36;101146.08;126256;1101;101926;-82
2023/08/15 05:15:49;;;;;;;15.37;7.70;;;;;;;19.53;62.52;101151.49;126351;1101;104101;-79
2023/08/15 05:18:25;;;;;;;11.97;7.07;;;;;;;19.61;62.97;101149.78;125782;1102;104156;-80
2023/08/15 05:20:58;;;;;;;17.53;7.23;;;;;;;19.71;62.23;101146.33;125363;1102;101768;-79
2023/08/15 05:23:29;;;;;;;13.70;7.10;;;;;;;19.79;62.56;101145.52;125187;1102;102272;-77
2023/08/15 05:26:01;;;;;;;18.43;8.00;;;;;;;19.86;62.42;101140.25;125059;1102;104326;-77
2023/08/15 05:28:32;;;;;;;17.10;7.23;;;;;;;19.95;62.23;101142.11;124479;1102;101790;-74
2023/08/15 05:31:06;;;;;;;14.03;8.00;;;;;;;20.02;61.29;101148.36;124551;1102;102798;-75
2023/08/15 05:33:41;;;;;;;17.07;7.75;;;;;;;20.13;61.07;101153.77;124718;1102;102051;-77
2023/08/15 05:36:13;;;;;;;16.80;8.10;;;;;;;20.23;61.84;101155.63;124673;1102;104181;-77
2023/08/15 05:38:44;;;;;;;16.73;7.87;;;;;;;20.35;61.11;101152.12;124592;1102;104082;-75
2023/08/15 05:41:16;;;;;;;20.07;7.40;;;;;;;20.43;60.82;101153.08;125471;1102;102200;-79
2023/08/15 05:43:50;;;;;;;17.33;7.67;;;;;;;20.52;61.00;101154.88;124565;1102;104268;-76
2023/08/15 05:46:22;;;;;;;19.27;7.87;;;;;;;20.64;61.50;101152.28;124844;1102;101912;-80
2023/08/15 05:48:57;;;;;;;20.97;8.27;;;;;;;20.75;60.65;101152.36;126525;1101;104198;-78
2023/08/15 05:51:35;;;;;;;21.87;8.03;;;;;;;20.85;60.34;101143.52;124874;1102;101986;-83
2023/08/15 05:54:11;;;;;;;18.63;7.90;;;;;;;20.95;60.50;101145.31;125817;1101;104313;-78
2023/08/15 05:56:47;;;;;;;17.83;7.67;;;;;;;21.07;60.70;101151.59;126742;1102;101846;-82
2023/08/15 05:59:22;;;;;;;18.93;8.23;;;;;;;21.16;60.33;101143.59;126715;1100;101830;-81
2023/08/15 06:02:04;;;;;;;17.40;8.07;;;;;;;21.29;60.29;101161.42;125334;1102;103678;-81
2023/08/15 06:04:57;;;;;;;18.97;7.77;;;;;;;21.40;59.77;101153.43;126264;1101;101925;-82
2023/08/15 06:07:58;;;;;;;16.03;7.40;;;;;;;21.51;59.23;101150.81;126962;1101;101694;-78
2023/08/15 06:10:58;;;;;;;13.67;7.57;;;;;;;21.65;58.83;101158.83;126754;1101;101785;-82
2023/08/15 06:13:57;;;;;;;17.83;7.93;;;;;;;21.76;58.38;101162.39;125437;1102;102082;-80
2023/08/15 06:20:05;;;;;;;16.93;8.10;;;;;;;22.04;57.80;101173.06;127329;1100;102863;-84
2023/08/15 06:22:57;;;;;;;18.73;8.30;;;;;;;22.15;58.42;101181.95;126304;1101;101597;-82
2023/08/15 06:25:34;;;;;;;20.10;8.47;;;;;;;22.25;58.38;101178.39;126290;1102;101256;-84
2023/08/15 06:28:36;;;;;;;20.67;8.53;;;;;;;22.38;57.96;101178.41;127163;1102;101498;-84
2023/08/15 06:31:26;;;;;;;17.52;8.00;;;;;;;22.50;57.81;101177.45;125825;1102;103864;-83
2023/08/15 06:34:09;;;;;;;22.23;8.60;;;;;;;22.62;57.45;101180.09;125851;1102;108316;-82
2023/08/15 06:36:57;;;;;;;19.33;8.17;;;;;;;22.74;57.40;101179.18;125204;1101;104198;-82
2023/08/15 06:39:42;;;;;;;23.40;8.37;;;;;;;22.86;57.23;101181.81;126260;1101;101674;-80
2023/08/15 06:42:18;;;;;;;20.03;8.40;;;;;;;23.05;57.46;101192.43;125392;1102;102070;-83
2023/08/15 06:45:08;;;;;;;20.93;7.83;;;;;;;23.18;57.02;101187.92;127172;1101;102381;-80
2023/08/15 06:48:17;;;;;;;17.80;8.00;;;;;;;23.33;57.15;101187.84;126133;1101;102042;-89
2023/08/15 06:51:10;;;;;;;17.83;8.03;;;;;;;23.45;56.64;101187.77;125510;1102;101805;-84
2023/08/15 06:54:08;;;;;;;18.87;8.37;;;;;;;23.62;56.71;101189.42;125484;1102;101842;-81
2023/08/15 06:56:41;;;;;;;17.63;8.40;;;;;;;23.80;56.50;101199.12;126883;1101;101705;-82
2023/08/15 06:59:15;;;;;;;15.70;7.73;;;;;;;23.94;56.37;101194.56;126166;1101;101817;-77
2023/08/15 07:01:51;;;;;;;15.93;7.80;;;;;;;24.08;55.93;101194.44;126019;1102;102014;-79
2023/08/15 07:04:43;;;;;;;18.97;7.87;;;;;;;24.24;55.99;101195.17;125763;1101;102052;-78
2023/08/15 07:07:19;;;;;;;17.43;7.37;;;;;;;24.44;55.83;101186.92;125097;1102;101817;-78
2023/08/15 07:09:53;;;;;;;16.17;7.37;;;;;;;24.61;55.51;101188.58;124507;1102;104213;-76
2023/08/15 07:12:29;;;;;;;21.53;8.27;;;;;;;24.74;55.46;101199.16;124885;1102;104165;-79
2023/08/15 07:15:06;;;;;;;18.73;7.83;;;;;;;24.90;55.64;101196.25;125132;1102;108339;-82
2023/08/15 07:17:56;;;;;;;16.00;7.13;;;;;;;25.14;54.87;101194.17;127089;1101;101635;-81
2023/08/15 07:20:29;;;;;;;17.83;8.17;;;;;;;25.35;54.77;101190.31;124543;1102;104230;-76
2023/08/15 07:23:01;;;;;;;22.47;7.90;;;;;;;25.68;54.13;101194.30;124592;1101;101993;-81
2023/08/15 07:25:41;;;;;;;14.97;7.00;;;;;;;25.92;53.56;101190.30;124908;1102;104165;-81
2023/08/15 07:28:22;;;;;;;17.73;7.80;;;;;;;26.32;52.67;101188.75;125291;1102;101970;-82
2023/08/15 07:31:10;;;;;;;20.63;7.43;;;;;;;26.53;52.83;101191.00;126183;1101;104194;-80
2023/08/15 07:33:44;;;;;;;14.33;7.23;;;;;;;26.68;52.30;101187.16;125176;1102;104165;-77
2023/08/15 07:36:16;;;;;;;16.03;6.50;;;;;;;26.80;52.17;101179.74;125849;1101;102064;-79
2023/08/15 07:38:55;;;;;;;16.50;6.90;;;;;;;27.00;51.04;101188.27;125244;1101;104093;-78
2023/08/15 07:41:33;;;;;;;17.50;6.63;;;;;;;27.19;50.96;101188.78;124531;1101;104220;-78
2023/08/15 07:44:27;;;;;;;16.87;7.20;;;;;;;27.35;50.51;101183.08;126481;1101;101817;-81
2023/08/15 07:47:17;;;;;;;16.23;6.47;;;;;;;27.54;50.18;101173.61;126235;1100;101909;-82
2023/08/15 07:49:52;;;;;;;19.20;6.80;;;;;;;27.72;50.13;101171.38;125321;1102;104166;-82
2023/08/15 07:52:29;;;;;;;15.37;7.30;;;;;;;27.84;49.72;101162.98;126025;1102;101948;-82
2023/08/15 07:55:05;;;;;;;17.27;6.40;;;;;;;28.05;49.79;101169.67;125273;1102;104209;-80
2023/08/15 07:57:45;;;;;;;15.53;6.50;;;;;;;28.21;48.95;101170.14;125671;1101;102112;-80
2023/08/15 08:00:25;;;;;;;16.47;6.70;;;;;;;28.30;48.06;101177.98;125232;1101;101876;-77
2023/08/15 08:02:59;;;;;;;16.03;6.23;;;;;;;28.49;47.69;101172.08;124277;1102;104264;-77
2023/08/15 08:05:31;;;;;;;15.83;6.20;;;;;;;28.66;47.66;101172.51;124458;1102;104294;-79
2023/08/15 08:08:03;;;;;;;14.67;6.80;;;;;;;28.68;46.83;101162.53;125755;1102;101837;-77
2023/08/15 08:10:37;;;;;;;18.23;6.40;;;;;;;28.73;46.89;101162.41;124762;1102;102026;-80
2023/08/15 08:13:21;;;;;;;14.80;5.97;;;;;;;28.82;46.61;101158.55;125884;1101;104165;-79
2023/08/15 08:15:55;;;;;;;12.15;6.05;;;;;;;28.97;46.12;101154.52;125133;1102;102090;-78
2023/08/15 08:18:27;;;;;;;14.28;5.58;;;;;;;29.12;45.95;101159.42;125777;1101;102090;-80
2023/08/15 08:21:19;;;;;;;;;;;;;;;;;;;;;
2023/08/15 08:24:12;;;;;;;11.00;5.70;;;;;;;29.25;44.58;101153.66;125407;1102;101976;-82
2023/08/15 08:26:47;;;;;;;12.40;5.40;;;;;;;29.31;44.50;101148.97;124645;1102;101951;-83
2023/08/15 08:29:35;;;;;;;10.77;5.03;;;;;;;29.43;44.42;101153.07;125191;1102;104223;-80
2023/08/15 08:32:24;;;;;;;11.20;5.77;;;;;;;29.54;43.97;101150.89;125245;1102;104267;-80
2023/08/15 08:35:15;;;;;;;16.63;6.37;;;;;;;29.67;43.58;101143.27;126255;1102;101813;-81
2023/08/15 08:37:51;;;;;;;9.50;5.90;;;;;;;29.84;43.55;101141.83;125125;1102;104223;-79
2023/08/15 08:40:24;;;;;;;9.73;5.10;;;;;;;29.87;43.08;101139.92;124596;1103;104259;-78
2023/08/15 08:42:56;;;;;;;9.33;5.58;;;;;;;29.84;42.15;101147.23;124467;1102;101811;-79
2023/08/15 08:45:31;;;;;;;12.13;5.20;;;;;;;29.67;42.04;101143.27;124599;1102;102314;-79
2023/08/15 08:48:09;;;;;;;9.43;5.30;;;;;;;29.73;41.99;101139.45;124522;1101;107489;-80
2023/08/15 08:50:42;;;;;;;10.33;5.20;;;;;;;29.83;42.18;101143.66;124567;1102;104176;-79
2023/08/15 08:53:14;;;;;;;11.33;5.40;;;;;;;29.80;41.39;101140.19;124568;1102;104172;-77
2023/08/15 08:55:49;;;;;;;12.68;5.47;;;;;;;29.75;41.71;101133.07;124801;1102;101915;-79
2023/08/15 08:58:24;;;;;;;11.23;5.27;;;;;;;29.72;40.71;101135.00;125871;1101;118735;-79
2023/08/15 09:00:59;;;;;;;14.20;5.30;;;;;;;29.79;41.09;101124.85;124565;1102;102141;-79
2023/08/15 09:03:34;;;;;;;14.20;5.60;;;;;;;29.87;40.29;101126.40;126417;1101;101939;-79
2023/08/15 09:06:06;;;;;;;10.00;5.50;;;;;;;29.93;40.76;101119.87;124593;1102;104290;-82
2023/08/15 09:08:38;;;;;;;11.20;5.50;;;;;;;29.96;40.61;101127.88;125468;1102;102093;-80
2023/08/15 09:11:15;;;;;;;11.87;5.60;;;;;;;30.08;40.42;101123.86;124513;1102;101952;-80
2023/08/15 09:13:51;;;;;;;10.77;5.93;;;;;;;30.18;40.39;101129.81;124370;1101;103656;-79
2023/08/15 09:16:26;;;;;;;13.70;5.53;;;;;;;30.38;39.99;101126.38;124434;1100;101955;-79
2023/08/15 09:19:03;;;;;;;9.50;5.60;;;;;;;30.53;39.56;101133.97;125549;1100;109715;-77
2023/08/15 09:21:36;;;;;;;11.43;5.60;;;;;;;30.44;39.39;101118.94;124758;1101;101835;-79
2023/08/15 09:24:10;;;;;;;9.53;5.30;;;;;;;30.56;39.71;101120.31;125861;1101;102344;-77
2023/08/15 09:26:48;;;;;;;12.30;5.20;;;;;;;30.72;39.38;101101.64;125761;1102;102010;-81
2023/08/15 09:29:23;;;;;;;9.37;5.60;;;;;;;30.74;39.54;101101.58;124809;1102;104351;-86
2023/08/15 09:32:07;;;;;;;11.25;5.62;;;;;;;30.78;39.25;101093.27;126846;1100;101696;-83
2023/08/15 09:34:42;;;;;;;13.83;4.87;;;;;;;30.90;38.71;101100.05;126223;1101;101735;-78
2023/08/15 09:37:15;;;;;;;9.65;4.80;;;;;;;30.94;38.09;101092.67;125859;1101;104281;-77
2023/08/15 09:43:15;;;;;;;9.43;5.60;;;;;;;31.00;37.75;101087.91;124395;1102;101987;-78
2023/08/15 09:45:52;;;;;;;13.80;5.50;;;;;;;30.95;37.79;101095.31;124421;1102;104201;-77
2023/08/15 09:48:39;;;;;;;9.33;5.30;;;;;;;31.04;38.18;101088.69;124312;1102;101941;-77
2023/08/15 09:51:19;;;;;;;11.67;5.33;;;;;;;31.16;37.75;101088.16;124373;1101;104654;-83
2023/08/15 09:53:55;;;;;;;10.77;5.23;;;;;;;31.14;37.60;101081.92;126159;1101;101795;-78
2023/08/15 10:03:51;;;;;;;7.13;4.40;;;;;;;31.05;37.04;101074.17;125348;1102;104185;-81
2023/08/15 10:06:27;;;;;;;26.47;9.93;;;;;;;31.09;36.92;101062.27;125875;1101;101791;-80
2023/08/15 10:09:09;;;;;;;22.20;8.23;;;;;;;31.21;36.70;101062.70;126224;1101;101930;-78
2023/08/15 10:11:46;;;;;;;10.13;5.60;;;;;;;31.22;36.20;101059.05;124686;1102;101900;-78
2023/08/15 10:14:26;;;;;;;9.40;4.90;;;;;;;31.21;36.33;101047.31;124179;1105;101983;-79
2023/08/15 10:17:03;;;;;;;11.83;5.20;;;;;;;31.14;35.86;101046.69;125496;1105;102069;-77
2023/08/15 10:19:37;;;;;;;14.27;4.93;;;;;;;31.06;36.00;101054.27;124249;1105;104223;-76
2023/08/15 10:22:35;;;;;;;;;;;;;;;;;;;;;
2023/08/15 10:25:36;;;;;;;10.58;4.80;;;;;;;31.10;36.17;101044.17;124450;1105;117441;-76
2023/08/15 10:28:14;;;;;;;14.87;5.20;;;;;;;31.10;35.54;101034.20;124745;1105;101945;-81
2023/08/15 10:30:47;;;;;;;9.37;4.97;;;;;;;31.23;35.17;101030.98;125234;1105;102053;-77
2023/08/15 10:33:26;;;;;;;9.03;4.70;;;;;;;31.22;35.38;101030.11;124107;1102;104175;-78
2023/08/15 10:36:09;;;;;;;10.83;4.70;;;;;;;31.29;35.48;101025.30;124580;1105;102109;-79
2023/08/15 10:38:44;;;;;;;11.20;5.37;;;;;;;31.29;35.26;101022.59;125895;1104;101925;-77
2023/08/15 10:41:20;;;;;;;10.80;4.70;;;;;;;31.34;35.34;101026.00;125680;1104;101835;-83
2023/08/15 10:43:58;;;;;;;9.67;4.97;;;;;;;31.35;34.70;101030.45;125881;1105;101956;-82
2023/08/15 10:46:39;;;;;;;11.70;5.17;;;;;;;31.42;34.94;101022.97;125718;1103;102050;-83
2023/08/15 10:49:20;;;;;;;;;;;;;;;31.51;34.25;101019.86;124932;1102;104236;-84
2023/08/15 10:52:02;;;;;;;9.33;4.87;;;;;;;31.69;34.83;101018.17;125908;1103;102369;-80
2023/08/15 10:54:42;;;;;;;12.13;5.20;;;;;;;31.77;35.04;101012.41;125130;1105;104197;-79
2023/08/15 10:57:23;;;;;;;12.77;5.00;;;;;;;31.90;34.99;101013.63;125543;1105;104207;-81
2023/08/15 10:59:58;;;;;;;12.83;5.00;;;;;;;31.94;34.41;101011.65;125877;1103;104269;-84
2023/08/15 11:02:35;;;;;;;13.97;4.97;;;;;;;31.99;35.74;101013.22;126036;1105;101609;-83
2023/08/15 11:05:35;;;;;;;;;;;;;;;;;;;;;
2023/08/15 11:08:43;;;;;;;9.60;5.00;;;;;;;31.74;35.24;101001.70;125308;1109;102286;-80
2023/08/15 11:11:33;;;;;;;11.37;5.10;;;;;;;31.78;34.56;101006.05;125352;1105;104322;-84
2023/08/15 11:14:14;;;;;;;8.53;4.50;;;;;;;31.89;34.38;101015.44;126055;1104;104181;-86
2023/08/15 11:17:21;;;;;;;;;;;;;;;;;;;;;
2023/08/15 11:20:21;;;;;;;9.47;4.70;;;;;;;31.90;35.37;101009.08;125551;1105;104239;-82
2023/08/15 11:23:09;;;;;;;7.83;4.70;;;;;;;31.73;35.86;101011.67;125651;1105;104192;-87
2023/08/15 11:25:43;;;;;;;10.33;4.80;;;;;;;31.57;35.63;101018.72;125319;1105;102015;-84
2023/08/15 11:28:17;;;;;;;12.00;5.00;;;;;;;31.57;35.86;101022.33;125452;1105;102015;-80
2023/08/15 11:30:58;;;;;;;10.57;4.90;;;;;;;31.72;35.63;101012.62;125977;1105;102068;-85
2023/08/15 11:33:40;;;;;;;10.53;4.55;;;;;;;31.82;35.78;101016.69;125568;1105;101991;-82
2023/08/15 11:36:21;;;;;;;7.70;4.87;;;;;;;31.92;35.68;101014.43;125107;1105;102118;-82
2023/08/15 11:38:58;;;;;;;7.93;4.47;;;;;;;32.01;35.07;101007.72;125985;1103;104089;-81
2023/08/15 11:45:33;;;;;;;5.67;4.23;;;;;;;32.02;32.25;101006.74;125881;1105;101801;-89
2023/08/15 11:48:12;;;;;;;9.10;4.90;;;;;;;32.09;34.34;100994.69;126027;1105;102927;-85
2023/08/15 11:50:45;;;;;;;11.83;4.57;;;;;;;32.22;34.24;100994.99;126084;1105;101528;-82
2023/08/15 11:56:23;;;;;;;6.87;4.53;;;;;;;32.48;34.14;100991.03;125940;1102;101791;-80
2023/08/15 11:59:00;;;;;;;12.33;4.70;;;;;;;32.52;34.16;100994.47;125952;1102;102012;-87
2023/08/15 12:01:42;;;;;;;12.23;4.93;;;;;;;32.58;35.60;100986.93;125536;1102;104242;-78
2023/08/15 12:04:25;;;;;;;11.43;4.83;;;;;;;32.42;35.52;100989.48;124799;1102;103275;-82
2023/08/15 12:07:35;;;;;;;8.00;5.00;;;;;;;32.26;35.04;100988.48;126123;1102;104182;-79
2023/08/15 12:10:58;;;;;;;7.97;4.70;;;;;;;32.08;35.00;100985.65;125735;1102;101859;-80
2023/08/15 12:13:37;;;;;;;7.20;4.20;;;;;;;32.05;34.94;100983.08;126215;1101;104175;-82